Time;durP1;ratioP1;P1;durP2;ratioP2;P2;SDS_P1;SDS_P2;PMS_P1;PMS_P2;Temp;Humidity;BMP_temperature;BMP_pressure;BME280_temperature;BME280_humidity;BME280_pressure;Samples;Min_cycle;Max_cycle;Signal;HPM_P1;HPM_P2
2021/01/06 00:01:13;;;;;;;76.28;36.00;;;;;;;3.67;79.04;101006.75;4913638;29;20044;-63
2021/01/06 00:03:42;;;;;;;82.53;34.75;;;;;;;3.61;79.50;101007.78;4914435;29;20063;-63
2021/01/06 00:06:13;;;;;;;89.68;38.00;;;;;;;3.37;80.04;101011.94;4915041;29;20044;-64
2021/01/06 00:08:48;;;;;;;81.85;36.08;;;;;;;3.55;79.30;101005.28;4917870;29;20071;-64
2021/01/06 00:11:17;;;;;;;76.85;35.47;;;;;;;3.67;79.43;101009.50;4918895;29;20048;-64
2021/01/06 00:13:47;;;;;;;86.95;35.65;;;;;;;3.29;80.13;101007.81;4918424;29;20400;-62
2021/01/06 00:16:23;;;;;;;88.05;37.63;;;;;;;3.15;81.79;101011.22;4897835;29;20059;-64
2021/01/06 00:18:54;;;;;;;89.70;36.55;;;;;;;3.20;81.25;101014.81;4916583;29;20051;-62
2021/01/06 00:21:24;;;;;;;;;;;;;;;3.15;81.35;101008.50;4916434;29;20059;-63
2021/01/06 00:23:54;;;;;;;83.38;36.28;;;;;;;3.16;81.45;101007.41;4914786;29;19923;-64
2021/01/06 00:26:22;;;;;;;85.72;35.92;;;;;;;3.30;81.26;101014.06;4914166;29;20408;-64
2021/01/06 00:28:51;;;;;;;82.43;36.08;;;;;;;3.40;80.82;101012.25;4899957;29;20400;-62
2021/01/06 00:31:18;;;;;;;83.78;36.35;;;;;;;3.28;81.03;101017.03;4916198;29;20059;-64
2021/01/06 00:33:45;;;;;;;87.10;37.97;;;;;;;3.46;80.59;101015.84;4915030;29;20051;-61
2021/01/06 00:36:20;;;;;;;84.18;36.80;;;;;;;3.27;81.32;101020.88;4916660;29;20052;-62
2021/01/06 00:38:56;;;;;;;86.40;36.28;;;;;;;3.39;81.30;101018.78;4914289;29;20063;-63
2021/01/06 00:41:30;;;;;;;79.43;35.60;;;;;;;3.42;80.62;101018.28;4916351;29;20108;-63
2021/01/06 00:43:57;;;;;;;88.63;36.35;;;;;;;3.62;80.27;101014.91;4913925;29;20048;-62
2021/01/06 00:46:29;;;;;;;81.80;35.67;;;;;;;3.62;79.39;101031.25;4914856;29;20055;-65
2021/01/06 00:48:58;;;;;;;79.82;35.05;;;;;;;3.65;79.37;101021.72;4899286;29;20052;-62
2021/01/06 00:51:26;;;;;;;87.75;37.70;;;;;;;3.41;80.32;101021.25;4914945;29;20392;-64
2021/01/06 00:53:56;;;;;;;86.55;37.50;;;;;;;3.67;80.04;101025.84;4898900;29;20472;-64
2021/01/06 00:56:31;;;;;;;83.03;36.35;;;;;;;3.54;80.20;101015.34;4898615;29;20052;-63
2021/01/06 00:58:59;;;;;;;82.40;35.95;;;;;;;3.54;80.04;101017.28;4912711;29;20403;-63
2021/01/06 01:01:31;;;;;;;76.20;32.92;;;;;;;3.61;79.52;101020.59;4914454;29;20048;-65
2021/01/06 01:04:02;;;;;;;82.25;36.00;;;;;;;3.43;79.92;101016.38;4919978;29;20052;-64
2021/01/06 01:06:31;;;;;;;83.72;36.58;;;;;;;3.36;80.67;101016.56;4934420;29;20400;-63
2021/01/06 01:09:04;;;;;;;83.30;35.88;;;;;;;3.50;80.21;101022.44;4934419;29;20052;-64
2021/01/06 01:11:40;;;;;;;80.20;35.90;;;;;;;3.60;80.19;101024.41;4934052;29;20051;-62
2021/01/06 01:14:07;;;;;;;79.63;36.60;;;;;;;3.34;79.96;101020.66;4917770;29;20051;-64
2021/01/06 01:16:54;;;;;;;79.97;33.65;;;;;;;3.58;79.73;101027.38;4915633;29;20059;-64
2021/01/06 01:19:33;;;;;;;74.50;33.40;;;;;;;3.15;81.49;101024.81;4926497;29;20054;-63
2021/01/06 01:22:03;;;;;;;78.43;34.60;;;;;;;3.39;80.90;101031.56;4953326;29;20059;-63
2021/01/06 01:24:31;;;;;;;76.82;33.67;;;;;;;3.58;79.94;101021.94;4935255;29;20058;-63
2021/01/06 01:26:57;;;;;;;80.97;36.63;;;;;;;3.35;80.49;101023.09;4926521;29;20059;-64
2021/01/06 01:29:45;;;;;;;80.78;36.05;;;;;;;3.43;80.55;101024.53;4935230;29;20051;-64
2021/01/06 01:32:14;;;;;;;;;;;;;;;3.41;80.72;101032.97;4933785;29;20052;-61
2021/01/06 01:34:41;;;;;;;73.45;33.42;;;;;;;3.66;80.49;101026.09;4934971;29;20302;-62
2021/01/06 01:37:08;;;;;;;76.82;33.45;;;;;;;3.77;79.44;101027.78;4933173;29;20056;-64
2021/01/06 01:39:35;;;;;;;74.80;35.33;;;;;;;3.74;79.02;101031.88;4934896;29;20059;-63
2021/01/06 01:42:05;;;;;;;75.50;33.97;;;;;;;3.74;79.03;101023.72;4932349;29;20056;-62
2021/01/06 01:44:31;;;;;;;81.47;35.67;;;;;;;3.70;79.57;101029.91;4934128;29;20060;-64
2021/01/06 01:47:16;;;;;;;78.30;34.58;;;;;;;3.75;79.56;101027.25;4933424;29;20059;-65
2021/01/06 01:49:47;;;;;;;78.82;32.78;;;;;;;3.32;80.63;101033.69;4917477;29;20487;-62
2021/01/06 01:52:22;;;;;;;84.20;34.95;;;;;;;3.61;80.47;101042.41;4919905;29;20373;-62
2021/01/06 01:55:11;;;;;;;82.30;36.95;;;;;;;3.64;79.65;101034.53;4912205;29;20071;-64
2021/01/06 01:58:02;;;;;;;80.45;35.60;;;;;;;3.69;79.47;101031.84;4919218;29;20392;-64
2021/01/06 02:00:33;;;;;;;76.28;34.20;;;;;;;3.67;79.34;101034.00;4936971;29;20043;-64
2021/01/06 02:03:04;;;;;;;83.53;35.28;;;;;;;3.67;78.84;101038.63;4926326;29;20075;-64
2021/01/06 02:05:37;;;;;;;75.82;34.10;;;;;;;3.52;79.34;101050.22;4918486;29;20063;-63
2021/01/06 02:08:15;;;;;;;73.20;33.67;;;;;;;3.33;80.22;101046.22;4902493;29;20056;-64
2021/01/06 02:11:07;;;;;;;74.13;33.65;;;;;;;3.32;81.00;101047.31;4919065;29;20369;-64
2021/01/06 02:13:55;;;;;;;75.65;34.40;;;;;;;3.48;80.39;101043.66;4892782;29;20059;-64
2021/01/06 02:16:59;;;;;;;79.25;34.80;;;;;;;3.48;79.72;101046.38;4902822;29;20059;-63
2021/01/06 02:19:33;;;;;;;74.78;33.45;;;;;;;3.81;79.17;101046.09;4918722;29;20440;-64
2021/01/06 02:22:00;;;;;;;75.15;34.20;;;;;;;3.82;78.74;101039.56;4918495;29;20059;-64
2021/01/06 02:24:28;;;;;;;72.35;34.40;;;;;;;3.79;78.17;101048.25;4883919;29;20048;-62
2021/01/06 02:26:55;;;;;;;71.47;32.65;;;;;;;3.58;79.08;101046.44;4909959;29;20492;-63
2021/01/06 02:29:22;;;;;;;71.18;32.30;;;;;;;3.82;78.26;101044.22;4918511;29;20067;-63
2021/01/06 02:31:52;;;;;;;65.65;32.47;;;;;;;3.85;77.75;101038.22;4902662;29;20470;-63
2021/01/06 02:34:20;;;;;;;63.90;30.70;;;;;;;3.80;77.55;101052.63;4918337;29;20067;-65
2021/01/06 02:36:49;;;;;;;65.82;32.25;;;;;;;3.82;77.85;101044.22;4918927;29;20056;-65
2021/01/06 02:39:19;;;;;;;68.13;31.67;;;;;;;3.82;77.28;101044.22;4916293;29;20060;-63
2021/01/06 02:41:52;;;;;;;62.33;30.15;;;;;;;3.84;76.87;101042.84;4902533;29;20536;-64
2021/01/06 02:44:44;;;;;;;;;;;;;;;3.76;77.69;101050.69;4914455;29;20532;-63
2021/01/06 02:47:12;;;;;;;67.68;30.15;;;;;;;3.76;77.76;101040.63;4918812;29;19926;-61
2021/01/06 02:49:39;;;;;;;58.28;28.63;;;;;;;3.48;78.19;101040.91;4916729;29;20404;-63
2021/01/06 02:52:15;;;;;;;62.60;30.92;;;;;;;3.52;78.61;101035.78;4918133;29;20060;-64
2021/01/06 02:54:46;;;;;;;68.45;31.75;;;;;;;3.77;77.71;101038.69;4917414;29;20052;-65
2021/01/06 02:57:18;;;;;;;69.13;30.92;;;;;;;3.83;77.71;101034.94;4917241;29;20056;-63
2021/01/06 02:59:47;;;;;;;68.70;32.35;;;;;;;3.43;79.06;101030.00;4901127;29;20055;-63
2021/01/06 03:02:22;;;;;;;66.30;30.75;;;;;;;3.49;78.95;101034.38;4909917;29;20496;-64
2021/01/06 03:05:22;;;;;;;63.08;29.73;;;;;;;3.40;78.93;101038.66;4935144;29;20063;-62
2021/01/06 03:07:56;;;;;;;70.07;31.80;;;;;;;3.47;79.02;101037.38;4878338;29;20068;-64
2021/01/06 03:10:24;;;;;;;64.30;29.83;;;;;;;3.46;78.65;101032.19;4878574;29;20053;-63
2021/01/06 03:12:55;;;;;;;64.85;30.83;;;;;;;3.55;78.33;101035.25;4859426;29;20077;-63
2021/01/06 03:15:29;;;;;;;66.07;31.55;;;;;;;3.71;77.69;101032.41;4860342;29;20061;-64
2021/01/06 03:17:59;;;;;;;63.22;30.85;;;;;;;3.80;77.61;101028.09;4869796;29;20077;-62
2021/01/06 03:20:43;;;;;;;61.65;29.98;;;;;;;3.84;77.41;101025.66;4877806;29;20057;-63
2021/01/06 03:23:39;;;;;;;62.70;29.50;;;;;;;3.83;76.67;101034.94;4871226;29;20057;-63
2021/01/06 03:26:13;;;;;;;60.15;28.70;;;;;;;3.88;76.81;101016.72;4878738;29;20061;-63
2021/01/06 03:28:53;;;;;;;58.85;28.67;;;;;;;4.06;76.03;101024.47;4878030;29;20097;-64
2021/01/06 03:31:25;;;;;;;63.38;30.63;;;;;;;4.17;75.71;101025.34;4862293;29;20064;-63
2021/01/06 03:34:02;;;;;;;58.70;28.95;;;;;;;4.16;75.83;101023.72;4862156;29;20097;-63
2021/01/06 03:36:33;;;;;;;;;;;;;;;4.15;75.41;101011.97;4863626;29;20489;-63
2021/01/06 03:39:05;;;;;;;63.97;29.67;;;;;;;4.15;75.74;101011.97;4877883;29;19924;-64
2021/01/06 03:41:33;;;;;;;57.88;28.83;;;;;;;3.85;76.48;101022.72;4877620;29;20053;-64
2021/01/06 03:44:06;;;;;;;63.78;30.20;;;;;;;4.01;76.11;101016.25;4884153;29;20496;-65
2021/01/06 03:47:17;;;;;;;63.30;29.83;;;;;;;3.78;77.26;101010.38;4923466;29;20060;-63
2021/01/06 03:49:57;;;;;;;65.90;30.65;;;;;;;3.77;77.47;101006.00;4920117;29;20407;-64
2021/01/06 03:52:27;;;;;;;64.38;31.73;;;;;;;3.85;77.58;101016.44;4918824;29;20048;-63
2021/01/06 03:55:33;;;;;;;62.92;30.77;;;;;;;3.54;77.92;101007.19;4928503;29;20051;-63
2021/01/06 03:58:03;;;;;;;54.28;28.27;;;;;;;3.80;77.40;101000.06;4935023;29;20055;-63
2021/01/06 04:00:54;;;;;;;64.10;29.23;;;;;;;3.89;76.82;100984.88;4935591;29;20066;-64
2021/01/06 04:03:29;;;;;;;63.08;29.63;;;;;;;3.76;76.94;100993.47;4919402;29;20051;-64
2021/01/06 04:06:12;;;;;;;65.13;31.05;;;;;;;3.55;78.40;100991.69;4933672;29;20513;-63
2021/01/06 04:08:46;;;;;;;63.67;29.77;;;;;;;3.80;77.88;101002.78;4887421;29;20063;-63
2021/01/06 04:11:33;;;;;;;67.90;31.23;;;;;;;3.63;78.17;100989.28;4919977;29;20052;-63
2021/01/06 04:14:00;;;;;;;61.28;29.92;;;;;;;4.03;77.11;100997.75;4938189;29;20048;-64
2021/01/06 04:16:28;;;;;;;60.13;30.33;;;;;;;3.69;77.47;100995.59;4935840;29;20496;-63
2021/01/06 04:18:57;;;;;;;62.83;30.45;;;;;;;3.74;77.69;101001.09;4935469;29;20051;-63
2021/01/06 04:21:25;;;;;;;60.80;30.38;;;;;;;3.60;77.55;101002.59;4935752;29;20385;-63
2021/01/06 04:23:51;;;;;;;64.00;29.15;;;;;;;3.81;77.23;101010.69;4935229;29;20068;-63
2021/01/06 04:26:27;;;;;;;60.35;29.35;;;;;;;3.77;76.94;101006.84;4935855;29;20412;-63
2021/01/06 04:29:00;;;;;;;58.90;28.95;;;;;;;3.85;76.94;101003.63;4935342;29;20047;-63
2021/01/06 04:31:27;;;;;;;59.30;30.90;;;;;;;3.68;77.49;101010.31;4917375;29;20518;-62
2021/01/06 04:33:55;;;;;;;61.05;29.75;;;;;;;3.74;78.03;101010.09;4934774;29;20051;-63
2021/01/06 04:36:29;;;;;;;61.63;30.52;;;;;;;3.94;77.26;101012.94;4919243;29;20419;-63
2021/01/06 04:39:05;;;;;;;56.45;28.65;;;;;;;3.86;77.23;101016.16;4935340;29;20078;-62
2021/01/06 04:41:38;;;;;;;59.65;29.67;;;;;;;4.08;76.35;101022.28;4935675;29;20054;-63
2021/01/06 04:44:43;;;;;;;53.72;26.40;;;;;;;4.01;75.04;101024.44;4935460;29;20056;-64
2021/01/06 04:47:47;;;;;;;52.53;25.85;;;;;;;3.92;74.92;101025.19;4935395;29;20055;-63
2021/01/06 04:50:57;;;;;;;58.35;27.95;;;;;;;3.47;76.56;101025.66;4935799;29;20086;-63
2021/01/06 04:53:36;;;;;;;49.83;26.02;;;;;;;3.68;76.08;101027.47;4936270;29;20404;-63
2021/01/06 04:56:26;;;;;;;57.90;28.10;;;;;;;3.70;76.43;101017.13;4936690;29;20051;-63
2021/01/06 04:59:25;;;;;;;57.83;28.20;;;;;;;3.70;76.19;101027.19;4934530;29;20098;-64
2021/01/06 05:02:06;;;;;;;56.58;27.77;;;;;;;3.70;76.51;101029.91;4917164;29;20055;-64
2021/01/06 05:04:33;;;;;;;59.25;28.65;;;;;;;3.55;77.23;101019.75;4914514;29;20376;-63
2021/01/06 05:07:35;;;;;;;55.95;27.08;;;;;;;3.82;76.57;101025.94;4934774;29;20054;-64
2021/01/06 05:10:24;;;;;;;58.10;28.58;;;;;;;3.79;75.95;101029.19;4894976;29;20064;-63
2021/01/06 05:12:53;;;;;;;55.67;28.17;;;;;;;3.76;76.28;101027.00;4894133;29;20053;-62
2021/01/06 05:15:40;;;;;;;57.65;27.40;;;;;;;3.90;75.52;101020.03;4892999;29;20064;-64
2021/01/06 05:18:09;;;;;;;61.45;29.63;;;;;;;3.87;75.64;101015.06;4891591;29;20064;-64
2021/01/06 05:20:46;;;;;;;58.38;28.85;;;;;;;3.85;75.40;101016.44;4876592;29;20549;-63
2021/01/06 05:23:22;;;;;;;63.95;30.65;;;;;;;3.86;75.81;101026.22;4889358;29;20153;-65
2021/01/06 05:25:53;;;;;;;57.60;28.73;;;;;;;3.93;75.14;101024.94;4895301;29;20072;-64
2021/01/06 05:28:23;;;;;;;55.10;27.65;;;;;;;3.87;75.59;101015.06;4895531;29;20056;-66
2021/01/06 05:30:54;;;;;;;63.00;29.05;;;;;;;3.82;75.60;101019.69;4894710;29;20059;-65
2021/01/06 05:33:33;;;;;;;55.40;27.52;;;;;;;3.64;76.05;101023.63;4879376;29;20207;-63
2021/01/06 05:36:01;;;;;;;63.72;29.98;;;;;;;3.55;76.87;101029.81;4894227;29;20049;-64
2021/01/06 05:38:34;;;;;;;62.15;28.65;;;;;;;3.40;77.20;101028.59;4895715;29;20064;-64
2021/01/06 05:41:09;;;;;;;59.45;27.27;;;;;;;3.42;77.37;101021.00;4894973;29;20465;-64
2021/01/06 05:43:45;;;;;;;59.30;26.90;;;;;;;3.80;76.39;101025.38;4897153;29;20061;-64
2021/01/06 05:46:20;;;;;;;57.22;28.50;;;;;;;3.89;75.92;101023.00;4913184;29;20062;-65
2021/01/06 05:48:59;;;;;;;62.92;29.17;;;;;;;3.86;75.35;101029.78;4935133;29;20063;-63
2021/01/06 05:51:37;;;;;;;62.03;28.77;;;;;;;3.63;76.91;101018.44;4918131;29;20067;-65
2021/01/06 05:54:19;;;;;;;62.15;28.60;;;;;;;3.65;76.80;101027.16;4934713;29;20052;-64
2021/01/06 05:57:10;;;;;;;65.20;29.88;;;;;;;3.60;76.90;101021.69;4934382;29;20059;-64
2021/01/06 05:59:46;;;;;;;64.18;29.48;;;;;;;3.51;77.32;101024.06;4934640;29;20416;-65
2021/01/06 06:02:43;;;;;;;66.45;30.35;;;;;;;3.55;77.87;101024.34;4922563;29;20055;-64
2021/01/06 06:05:39;;;;;;;63.50;30.10;;;;;;;3.79;76.24;101015.56;4897724;29;20048;-64
2021/01/06 06:08:40;;;;;;;56.55;26.90;;;;;;;3.63;76.43;101024.69;4899452;29;20051;-64
2021/01/06 06:11:44;;;;;;;61.40;27.45;;;;;;;3.72;76.15;101016.88;4898794;29;20488;-65
2021/01/06 06:14:33;;;;;;;61.75;29.13;;;;;;;3.71;76.26;101021.50;4913698;29;20052;-64
2021/01/06 06:17:07;;;;;;;59.20;28.15;;;;;;;3.72;75.90;101027.75;4914417;29;20052;-65
2021/01/06 06:20:03;;;;;;;56.95;27.90;;;;;;;3.65;76.13;101028.00;4901896;29;20071;-64
2021/01/06 06:22:34;;;;;;;61.20;28.15;;;;;;;3.68;76.29;101023.94;4897492;29;20052;-64
2021/01/06 06:25:01;;;;;;;57.00;28.27;;;;;;;3.61;76.12;101026.84;4895929;29;20052;-64
2021/01/06 06:27:46;;;;;;;59.88;28.55;;;;;;;3.74;76.01;101031.06;4915579;29;20055;-64
2021/01/06 06:30:24;;;;;;;59.53;28.42;;;;;;;3.82;75.68;101031.38;4912596;29;20067;-64
2021/01/06 06:32:53;;;;;;;51.20;23.85;;;;;;;4.01;74.51;101042.72;4912937;29;20052;-64
2021/01/06 06:35:35;;;;;;;54.72;26.67;;;;;;;3.98;75.06;101035.03;4912483;29;20056;-64
2021/01/06 06:38:08;;;;;;;56.92;27.30;;;;;;;3.84;75.31;101039.28;4917697;29;20056;-63
2021/01/06 06:40:56;;;;;;;57.25;27.98;;;;;;;3.82;75.50;101036.84;4918279;29;20079;-63
2021/01/06 06:43:47;;;;;;;61.08;29.48;;;;;;;3.63;76.08;101046.50;4900070;29;20060;-62
2021/01/06 06:46:32;;;;;;;56.55;27.83;;;;;;;3.72;75.88;101044.94;4898623;29;20064;-63
2021/01/06 06:49:38;;;;;;;52.60;26.00;;;;;;;3.51;76.29;101047.72;4883544;29;20048;-65
2021/01/06 06:52:18;;;;;;;53.63;27.15;;;;;;;3.85;75.20;101049.13;4841353;29;20053;-64
2021/01/06 06:55:04;;;;;;;51.35;27.00;;;;;;;3.73;74.78;101060.19;4860502;29;20061;-64
2021/01/06 06:57:38;;;;;;;55.50;27.40;;;;;;;3.82;74.80;101064.06;4845164;29;20068;-63
2021/01/06 07:00:18;;;;;;;52.35;26.90;;;;;;;3.60;75.43;101063.34;4849353;29;20062;-64
2021/01/06 07:02:49;;;;;;;55.95;27.13;;;;;;;3.83;75.46;101057.56;4841401;29;20049;-64
2021/01/06 07:05:40;;;;;;;57.75;29.10;;;;;;;3.93;74.77;101067.69;4841178;29;20054;-64
2021/01/06 07:08:20;;;;;;;54.50;27.77;;;;;;;3.60;75.75;101066.09;4833147;29;20470;-64
2021/01/06 07:10:55;;;;;;;52.70;27.92;;;;;;;3.76;75.67;101067.03;4845430;29;20100;-64
2021/01/06 07:13:25;;;;;;;59.63;29.02;;;;;;;3.57;76.33;101073.94;4845439;29;20053;-64
2021/01/06 07:16:15;;;;;;;55.38;27.70;;;;;;;3.40;77.17;101076.78;4859568;29;20057;-65
2021/01/06 07:18:53;;;;;;;60.50;30.20;;;;;;;3.44;77.45;101069.75;4804911;29;20088;-64
2021/01/06 07:21:41;;;;;;;58.03;29.70;;;;;;;3.53;77.00;101068.19;4805400;29;20055;-66
2021/01/06 07:24:17;;;;;;;59.42;29.10;;;;;;;3.59;76.65;101069.91;4845980;29;20054;-64
2021/01/06 07:26:51;;;;;;;55.55;28.08;;;;;;;3.86;75.73;101075.28;4846036;29;20065;-65
2021/01/06 07:29:23;;;;;;;53.10;28.38;;;;;;;3.89;75.84;101075.56;4860212;29;20069;-64
2021/01/06 07:32:04;;;;;;;54.17;27.63;;;;;;;3.71;76.10;101073.28;4844618;29;20061;-66
2021/01/06 07:34:41;;;;;;;49.38;26.42;;;;;;;3.67;76.19;101080.31;4859671;29;20530;-62
2021/01/06 07:37:36;;;;;;;52.60;27.23;;;;;;;3.68;75.85;101075.69;4858235;29;20085;-65
2021/01/06 07:40:15;;;;;;;52.20;26.05;;;;;;;3.77;74.90;101079.56;4844544;29;20069;-64
2021/01/06 07:43:11;;;;;;;48.55;25.25;;;;;;;3.77;75.16;101088.56;4858555;29;20073;-63
2021/01/06 07:45:59;;;;;;;48.65;25.15;;;;;;;3.74;74.25;101093.69;4862943;29;20056;-66
2021/01/06 07:48:38;;;;;;;51.03;25.92;;;;;;;3.76;74.31;101100.56;4858528;29;20084;-61
2021/01/06 07:51:57;;;;;;;47.65;25.95;;;;;;;3.83;74.25;101101.16;4855168;29;20086;-61
2021/01/06 07:54:54;;;;;;;45.35;23.63;;;;;;;3.83;74.28;101101.16;4858546;29;20530;-65
2021/01/06 07:57:55;;;;;;;51.38;26.33;;;;;;;3.76;75.08;101108.72;4835057;29;20058;-62
2021/01/06 08:00:36;;;;;;;49.38;25.80;;;;;;;3.73;74.98;101103.78;4786934;29;20047;-66
2021/01/06 08:03:16;;;;;;;51.63;26.25;;;;;;;3.94;74.58;101104.78;4799389;29;20368;-63
2021/01/06 08:05:59;;;;;;;49.97;25.63;;;;;;;3.51;75.76;101113.91;4813009;29;20559;-64
2021/01/06 08:08:41;;;;;;;51.78;27.08;;;;;;;3.66;75.69;101108.59;4821075;29;20062;-62
2021/01/06 08:11:17;;;;;;;52.58;27.90;;;;;;;3.88;75.21;101114.00;4821023;29;20066;-62
2021/01/06 08:13:44;;;;;;;51.88;27.05;;;;;;;3.93;74.77;101117.59;4802741;29;20058;-62
2021/01/06 08:16:21;;;;;;;56.60;27.45;;;;;;;3.99;74.62;101113.00;4821897;29;20057;-64
2021/01/06 08:19:11;;;;;;;52.65;26.67;;;;;;;4.22;74.25;101113.44;4819576;29;20047;-65
2021/01/06 08:21:47;;;;;;;47.08;25.40;;;;;;;4.05;74.40;101125.56;4820826;29;20080;-64
2021/01/06 08:24:20;;;;;;;53.58;26.73;;;;;;;4.12;73.74;101127.00;4812729;29;20160;-63
2021/01/06 08:26:53;;;;;;;48.70;24.55;;;;;;;4.00;74.05;101122.81;4805762;29;20062;-63
2021/01/06 08:29:28;;;;;;;51.13;24.77;;;;;;;4.02;74.03;101129.66;4805652;29;20057;-65
2021/01/06 08:32:19;;;;;;;50.45;24.75;;;;;;;3.95;74.13;101137.22;4821483;29;20055;-63
2021/01/06 08:34:56;;;;;;;47.85;24.35;;;;;;;3.91;74.71;101130.66;4853230;29;20410;-63
2021/01/06 08:37:45;;;;;;;55.17;24.33;;;;;;;4.09;74.24;101134.88;4935810;29;20051;-63
2021/01/06 08:40:27;;;;;;;46.13;24.42;;;;;;;4.20;73.64;101128.44;4934074;29;20500;-62
2021/01/06 08:42:54;;;;;;;49.25;26.52;;;;;;;4.21;73.98;101140.97;4934190;29;20054;-64
2021/01/06 08:45:47;;;;;;;45.55;25.13;;;;;;;4.01;74.34;101143.53;4936310;29;20055;-62
2021/01/06 08:48:35;;;;;;;51.65;25.35;;;;;;;3.74;75.81;101140.00;4923848;29;20439;-63
2021/01/06 08:51:07;;;;;;;54.03;27.90;;;;;;;3.70;76.25;101149.78;4935515;29;20051;-63
2021/01/06 08:53:36;;;;;;;51.28;25.35;;;;;;;4.06;75.51;101154.50;4934568;29;20065;-64
2021/01/06 08:56:10;;;;;;;52.08;27.10;;;;;;;3.64;76.73;101154.38;4934092;29;20491;-62
2021/01/06 08:58:52;;;;;;;51.15;27.42;;;;;;;3.56;77.37;101154.03;4913278;29;20056;-62
2021/01/06 09:01:41;;;;;;;54.30;27.15;;;;;;;3.95;76.96;101150.84;4928617;29;20504;-63
2021/01/06 09:04:18;;;;;;;60.90;28.20;;;;;;;3.75;76.91;101153.38;4913011;29;20051;-64
2021/01/06 09:07:03;;;;;;;56.90;27.90;;;;;;;3.83;77.16;101157.53;4932261;29;20048;-64
2021/01/06 09:09:40;;;;;;;51.90;27.75;;;;;;;3.85;77.49;101158.94;4931077;29;20063;-62
2021/01/06 09:12:57;;;;;;;50.80;25.88;;;;;;;3.81;78.23;101165.97;4933270;29;20048;-62
2021/01/06 09:15:45;;;;;;;57.22;26.95;;;;;;;3.78;77.97;101163.78;4848007;29;20486;-66
2021/01/06 09:18:26;;;;;;;57.15;28.77;;;;;;;3.67;78.60;101167.47;4924944;29;20047;-64
2021/01/06 09:21:21;;;;;;;57.47;28.60;;;;;;;3.54;79.10;101162.41;4915256;29;20058;-64
2021/01/06 09:23:57;;;;;;;63.67;30.85;;;;;;;3.52;79.71;101169.22;4934288;29;20051;-63
2021/01/06 09:26:27;;;;;;;62.58;30.88;;;;;;;3.50;80.20;101161.31;4931015;29;20063;-64
2021/01/06 09:29:01;;;;;;;59.22;29.50;;;;;;;3.79;78.97;101173.59;4933810;29;20055;-64
2021/01/06 09:31:28;;;;;;;56.70;28.55;;;;;;;4.02;78.23;101167.81;4933680;29;20052;-64
2021/01/06 09:33:56;;;;;;;55.00;28.02;;;;;;;3.77;78.23;101177.63;4921333;29;20059;-65
2021/01/06 09:36:24;;;;;;;50.42;27.88;;;;;;;3.80;78.45;101168.97;4916224;29;20538;-65
2021/01/06 09:38:52;;;;;;;60.28;28.67;;;;;;;3.61;78.72;101173.13;4933992;29;20063;-64
2021/01/06 09:41:23;;;;;;;57.55;27.90;;;;;;;3.52;79.33;101174.66;4932943;29;20047;-63
2021/01/06 09:43:55;;;;;;;63.63;29.30;;;;;;;3.68;79.35;101176.47;4932477;29;20047;-64
2021/01/06 09:46:43;;;;;;;57.90;27.67;;;;;;;3.79;79.12;101175.47;4928403;29;20052;-63
2021/01/06 09:49:12;;;;;;;56.78;29.85;;;;;;;3.88;78.54;101182.94;4930196;29;20052;-63
2021/01/06 09:51:45;;;;;;;58.08;28.13;;;;;;;3.92;78.27;101185.97;4919059;29;20052;-64
2021/01/06 09:54:13;;;;;;;58.85;29.77;;;;;;;4.06;77.98;101193.44;4908337;29;20052;-65
2021/01/06 09:56:40;;;;;;;54.88;27.88;;;;;;;3.81;77.85;101185.06;4923240;29;20075;-64
2021/01/06 09:59:30;;;;;;;51.70;26.73;;;;;;;3.95;77.47;101180.81;4917828;29;20060;-64
2021/01/06 10:02:14;;;;;;;50.22;25.58;;;;;;;3.64;77.35;101181.63;4907307;29;20056;-64
2021/01/06 10:04:43;;;;;;;51.13;26.75;;;;;;;3.90;77.83;101191.69;4902001;29;21168;-62
2021/01/06 10:07:47;;;;;;;53.53;26.10;;;;;;;3.72;78.00;101177.59;4917291;29;20071;-63
2021/01/06 10:10:16;;;;;;;51.50;26.23;;;;;;;3.77;77.91;101177.63;4912963;29;20056;-63
2021/01/06 10:13:04;;;;;;;60.00;27.67;;;;;;;3.86;78.11;101173.38;4918261;29;20048;-63
2021/01/06 10:15:59;;;;;;;56.28;28.60;;;;;;;3.83;77.95;101171.16;4915063;29;20056;-62
2021/01/06 10:18:51;;;;;;;57.80;28.42;;;;;;;3.86;77.36;101171.47;4912178;29;20052;-63
2021/01/06 10:21:48;;;;;;;59.45;29.45;;;;;;;3.83;78.42;101171.16;4910787;29;20052;-64
2021/01/06 10:24:27;;;;;;;58.08;29.20;;;;;;;3.90;78.34;101178.06;4917630;29;20063;-65
2021/01/06 10:27:17;;;;;;;54.22;27.85;;;;;;;3.70;78.13;101175.13;4887114;29;20056;-65
2021/01/06 10:29:50;;;;;;;55.95;28.63;;;;;;;3.89;77.43;101179.13;4912204;29;20071;-63
2021/01/06 10:32:46;;;;;;;60.03;30.20;;;;;;;3.75;77.72;101174.38;4908504;29;20056;-65
2021/01/06 10:35:41;;;;;;;54.38;27.17;;;;;;;3.95;76.83;101186.28;4918739;29;20048;-65
2021/01/06 10:38:40;;;;;;;56.47;28.75;;;;;;;3.80;77.62;101172.50;4918553;29;20063;-65
2021/01/06 10:41:18;;;;;;;53.75;27.35;;;;;;;3.91;77.00;101176.97;4918614;29;20059;-67
2021/01/06 10:43:47;;;;;;;48.20;24.25;;;;;;;3.82;76.82;101172.25;4918026;29;20068;-68
2021/01/06 10:46:38;;;;;;;49.87;25.10;;;;;;;3.92;76.56;101170.44;4921837;29;20056;-65
2021/01/06 10:49:34;;;;;;;43.33;21.90;;;;;;;3.60;76.90;101180.47;4905194;29;20060;-65
2021/01/06 10:52:07;;;;;;;46.85;23.58;;;;;;;3.64;77.45;101165.28;4848928;29;20053;-66
2021/01/06 10:54:41;;;;;;;47.67;23.85;;;;;;;3.82;76.60;101169.53;4859843;29;20491;-65
2021/01/06 10:57:15;;;;;;;48.00;24.27;;;;;;;3.79;77.06;101170.03;4862052;29;20057;-64
2021/01/06 11:00:11;;;;;;;53.15;25.70;;;;;;;3.83;77.13;101165.72;4855772;29;20119;-67
2021/01/06 11:02:58;;;;;;;49.53;26.23;;;;;;;4.10;76.92;101150.97;4844286;29;20062;-66
2021/01/06 11:05:33;;;;;;;54.55;26.73;;;;;;;4.00;76.22;101153.63;4857992;29;20061;-65
2021/01/06 11:08:37;;;;;;;54.72;26.58;;;;;;;3.94;76.49;101165.53;4844908;29;20061;-67
2021/01/06 11:11:21;;;;;;;54.22;27.58;;;;;;;4.16;76.57;101166.28;4860250;29;20594;-65
2021/01/06 11:14:02;;;;;;;62.58;29.25;;;;;;;4.08;76.69;101158.59;4844585;29;20057;-64
2021/01/06 11:16:56;;;;;;;55.88;27.13;;;;;;;4.12;76.58;101154.25;4860363;29;20062;-67
2021/01/06 11:19:42;;;;;;;56.17;27.42;;;;;;;4.23;76.25;101157.88;4844140;29;20102;-67
2021/01/06 11:22:32;;;;;;;52.67;26.15;;;;;;;4.06;75.76;101141.66;4862963;29;20046;-67
2021/01/06 11:25:12;;;;;;;53.55;25.45;;;;;;;4.12;76.00;101147.97;4866852;29;20169;-65
2021/01/06 11:28:05;;;;;;;50.55;24.77;;;;;;;4.13;75.75;101138.75;4869081;29;20493;-64
2021/01/06 11:30:35;;;;;;;51.17;26.70;;;;;;;4.22;75.23;101135.25;4822459;29;20069;-63
2021/01/06 11:33:13;;;;;;;51.85;25.95;;;;;;;4.16;75.18;101141.75;4823116;29;20054;-64
2021/01/06 11:36:06;;;;;;;52.43;25.80;;;;;;;4.03;76.03;101131.28;4820847;29;20057;-62
2021/01/06 11:38:42;;;;;;;56.17;27.08;;;;;;;4.22;75.50;101129.00;4813720;29;20062;-63
2021/01/06 11:41:11;;;;;;;54.17;25.60;;;;;;;4.44;75.26;101125.06;4822667;29;20087;-64
2021/01/06 11:43:57;;;;;;;47.35;25.63;;;;;;;4.32;74.49;101126.34;4817516;29;20104;-64
2021/01/06 11:46:51;;;;;;;47.15;24.63;;;;;;;4.40;74.19;101123.94;4822169;29;20062;-65
2021/01/06 11:49:30;;;;;;;48.85;24.17;;;;;;;4.46;73.94;101120.13;4822260;29;20082;-64
2021/01/06 11:52:05;;;;;;;52.08;26.13;;;;;;;4.61;73.19;101116.69;4808262;29;20098;-65
2021/01/06 11:54:43;;;;;;;52.55;26.65;;;;;;;4.69;73.60;101118.09;4823027;29;21284;-65
2021/01/06 11:57:29;;;;;;;55.97;27.13;;;;;;;4.54;73.95;101114.22;4823072;29;20054;-65
2021/01/06 12:00:41;;;;;;;61.72;28.90;;;;;;;4.69;74.43;101107.19;4822889;29;20058;-65
2021/01/06 12:03:08;;;;;;;57.75;28.55;;;;;;;4.25;75.64;101110.19;4839830;29;20483;-66
2021/01/06 12:06:03;;;;;;;61.97;29.50;;;;;;;4.12;76.56;101105.19;4840771;29;20049;-64
2021/01/06 12:08:49;;;;;;;64.80;30.60;;;;;;;4.23;77.06;101111.53;4907648;29;20067;-64
2021/01/06 12:11:26;;;;;;;67.53;31.52;;;;;;;3.92;77.34;101104.22;4935531;29;20056;-64
2021/01/06 12:14:24;;;;;;;64.85;30.23;;;;;;;4.22;77.18;101101.75;4935971;29;20066;-64